THY6TE LTBJ-LTFM
Flight info
| Callsign | THY6TE |
|---|---|
| Flight time | 0h 44m |
| Altitude | 28000 |
| Route | BERGO1T/34R BERGO N618 DUGLA/N0432F270 Z713 INBET |
| Aircraft | A20N/M-SDE2E3FGHIRWXY/LB1 |
Departure
| Time | 2026-05-06 18:48 |
|---|---|
| Airport | Adnan Menderes International Airport (LTBJ) |
Arrival
| Time | 2026-05-06 19:32 |
|---|---|
| Airport | İstanbul Airport (LTFM) |
| Time | Latitude | Longitude | Altitude | Speed | Heading |
|---|---|---|---|---|---|
| 2026-05-06 18:29 | 38.29142 | 27.15058 | 411 ft | 0 kts | 257° |
| 2026-05-06 18:36 | 38.29144 | 27.15069 | 410 ft | 2 kts | 253° |
| 2026-05-06 18:36 | 38.29147 | 27.15085 | 412 ft | 2 kts | 255° |
| 2026-05-06 18:37 | 38.29151 | 27.15101 | 413 ft | 2 kts | 255° |
| 2026-05-06 18:37 | 38.29153 | 27.15111 | 417 ft | 1 kts | 254° |
| 2026-05-06 18:37 | 38.29157 | 27.15129 | 419 ft | 1 kts | 252° |
| 2026-05-06 18:37 | 38.29160 | 27.15143 | 421 ft | 1 kts | 249° |
| 2026-05-06 18:38 | 38.29165 | 27.15157 | 413 ft | 1 kts | 242° |
| 2026-05-06 18:38 | 38.29171 | 27.15170 | 412 ft | 1 kts | 221° |
| 2026-05-06 18:38 | 38.29181 | 27.15177 | 416 ft | 1 kts | 172° |
| 2026-05-06 18:38 | 38.29186 | 27.15176 | 416 ft | 0 kts | 166° |
| 2026-05-06 18:40 | 38.29185 | 27.15176 | 413 ft | 1 kts | 166° |
| 2026-05-06 18:40 | 38.29147 | 27.15189 | 416 ft | 10 kts | 166° |
| 2026-05-06 18:40 | 38.29059 | 27.15215 | 414 ft | 16 kts | 167° |
| 2026-05-06 18:40 | 38.29040 | 27.15220 | 411 ft | 17 kts | 167° |
| 2026-05-06 18:41 | 38.29011 | 27.15229 | 413 ft | 18 kts | 167° |
| 2026-05-06 18:41 | 38.28953 | 27.15245 | 413 ft | 20 kts | 168° |
| 2026-05-06 18:42 | 38.28796 | 27.15315 | 413 ft | 31 kts | 154° |
| 2026-05-06 18:42 | 38.28731 | 27.15357 | 417 ft | 6 kts | 153° |
| 2026-05-06 18:42 | 38.28646 | 27.15406 | 417 ft | 8 kts | 164° |
| 2026-05-06 18:42 | 38.28632 | 27.15411 | 415 ft | 5 kts | 165° |
| 2026-05-06 18:43 | 38.28577 | 27.15432 | 414 ft | 12 kts | 161° |
| 2026-05-06 18:43 | 38.28522 | 27.15444 | 415 ft | 0 kts | 170° |
| 2026-05-06 18:45 | 38.28517 | 27.15445 | 417 ft | 4 kts | 170° |
| 2026-05-06 18:45 | 38.28456 | 27.15460 | 412 ft | 13 kts | 167° |
| 2026-05-06 18:45 | 38.28348 | 27.15492 | 413 ft | 19 kts | 167° |
| 2026-05-06 18:45 | 38.28256 | 27.15518 | 415 ft | 22 kts | 167° |
| 2026-05-06 18:46 | 38.28030 | 27.15588 | 410 ft | 28 kts | 167° |
| 2026-05-06 18:46 | 38.27834 | 27.15649 | 411 ft | 23 kts | 164° |
| 2026-05-06 18:46 | 38.27763 | 27.15697 | 414 ft | 14 kts | 121° |
| 2026-05-06 18:46 | 38.27781 | 27.15851 | 414 ft | 22 kts | 73° |
| 2026-05-06 18:47 | 38.27884 | 27.15889 | 411 ft | 20 kts | 347° |
| 2026-05-06 18:47 | 38.28293 | 27.15765 | 415 ft | 106 kts | 347° |
| 2026-05-06 18:47 | 38.29264 | 27.15475 | 469 ft | 169 kts | 346° |
| 2026-05-06 18:47 | 38.30491 | 27.15129 | 996 ft | 191 kts | 345° |
| 2026-05-06 18:48 | 38.31858 | 27.14708 | 1633 ft | 212 kts | 345° |
| 2026-05-06 18:48 | 38.32794 | 27.14411 | 2243 ft | 214 kts | 345° |
| 2026-05-06 18:48 | 38.34786 | 27.13842 | 3330 ft | 242 kts | 348° |
| 2026-05-06 18:48 | 38.36501 | 27.13397 | 4392 ft | 259 kts | 348° |
| 2026-05-06 18:49 | 38.38283 | 27.12925 | 5808 ft | 264 kts | 348° |
| 2026-05-06 18:49 | 38.40086 | 27.12429 | 7285 ft | 266 kts | 348° |
| 2026-05-06 18:49 | 38.41893 | 27.11897 | 8833 ft | 266 kts | 347° |
| 2026-05-06 18:49 | 38.43093 | 27.11534 | 9855 ft | 267 kts | 347° |
| 2026-05-06 18:50 | 38.44936 | 27.10972 | 10992 ft | 282 kts | 347° |
| 2026-05-06 18:50 | 38.46914 | 27.10369 | 11745 ft | 307 kts | 347° |
| 2026-05-06 18:50 | 38.49084 | 27.09710 | 12546 ft | 326 kts | 346° |
| 2026-05-06 18:50 | 38.51319 | 27.09034 | 13740 ft | 331 kts | 346° |
| 2026-05-06 18:51 | 38.53581 | 27.08350 | 14834 ft | 337 kts | 346° |
| 2026-05-06 18:51 | 38.55878 | 27.07654 | 15943 ft | 342 kts | 346° |
| 2026-05-06 18:51 | 38.58206 | 27.06954 | 17024 ft | 347 kts | 347° |
| 2026-05-06 18:51 | 38.60619 | 27.06514 | 18072 ft | 354 kts | 354° |
| 2026-05-06 18:52 | 38.63117 | 27.06518 | 19025 ft | 361 kts | 2° |
| 2026-05-06 18:52 | 38.65616 | 27.06938 | 19996 ft | 365 kts | 6° |
| 2026-05-06 18:52 | 38.68024 | 27.07399 | 20894 ft | 369 kts | 5° |
| 2026-05-06 18:52 | 38.70601 | 27.07874 | 21821 ft | 373 kts | 5° |
| 2026-05-06 18:53 | 38.73090 | 27.08330 | 22702 ft | 378 kts | 5° |
| 2026-05-06 18:53 | 38.75671 | 27.08803 | 23589 ft | 383 kts | 5° |
| 2026-05-06 18:53 | 38.78325 | 27.09291 | 24384 ft | 386 kts | 5° |
| 2026-05-06 18:53 | 38.81004 | 27.09786 | 25168 ft | 389 kts | 5° |
| 2026-05-06 18:54 | 38.83692 | 27.10284 | 25918 ft | 392 kts | 5° |
| 2026-05-06 18:54 | 38.86409 | 27.10787 | 26643 ft | 396 kts | 4° |
| 2026-05-06 18:54 | 38.89147 | 27.11294 | 27350 ft | 399 kts | 4° |
| 2026-05-06 18:54 | 38.91906 | 27.11806 | 27894 ft | 402 kts | 4° |
| 2026-05-06 18:55 | 38.94685 | 27.12321 | 28056 ft | 404 kts | 4° |
| 2026-05-06 18:55 | 38.99597 | 27.13234 | 28074 ft | 403 kts | 4° |
| 2026-05-06 18:56 | 39.05170 | 27.14257 | 28076 ft | 403 kts | 4° |
| 2026-05-06 18:56 | 39.10733 | 27.15267 | 28073 ft | 403 kts | 4° |
| 2026-05-06 18:57 | 39.16290 | 27.16280 | 28074 ft | 403 kts | 4° |
| 2026-05-06 18:57 | 39.19069 | 27.16391 | 28072 ft | 398 kts | 351° |
| 2026-05-06 18:57 | 39.21718 | 27.15636 | 28072 ft | 394 kts | 339° |
| 2026-05-06 18:58 | 39.26788 | 27.12865 | 28074 ft | 393 kts | 335° |
| 2026-05-06 18:58 | 39.31781 | 27.10074 | 28074 ft | 394 kts | 335° |
| 2026-05-06 18:59 | 39.36815 | 27.07266 | 28077 ft | 394 kts | 335° |
| 2026-05-06 18:59 | 39.41845 | 27.04454 | 28073 ft | 394 kts | 335° |
| 2026-05-06 19:00 | 39.46876 | 27.01641 | 28076 ft | 394 kts | 335° |
| 2026-05-06 19:00 | 39.51908 | 26.98816 | 28074 ft | 394 kts | 335° |
| 2026-05-06 19:01 | 39.56943 | 26.95987 | 28074 ft | 394 kts | 335° |
| 2026-05-06 19:01 | 39.61978 | 26.93156 | 28074 ft | 394 kts | 335° |
| 2026-05-06 19:02 | 39.67178 | 26.90935 | 28080 ft | 398 kts | 351° |
| 2026-05-06 19:02 | 39.69913 | 26.90954 | 28076 ft | 404 kts | 4° |
| 2026-05-06 19:02 | 39.72648 | 26.91862 | 28078 ft | 410 kts | 17° |
| 2026-05-06 19:03 | 39.77684 | 26.95534 | 28089 ft | 417 kts | 27° |
| 2026-05-06 19:03 | 39.82598 | 26.99540 | 28086 ft | 417 kts | 26° |
| 2026-05-06 19:04 | 39.87521 | 27.03400 | 28079 ft | 415 kts | 25° |
| 2026-05-06 19:04 | 39.92498 | 27.07241 | 28079 ft | 415 kts | 25° |
| 2026-05-06 19:05 | 39.97452 | 27.11065 | 27900 ft | 414 kts | 25° |
| 2026-05-06 19:05 | 39.99927 | 27.12978 | 27640 ft | 411 kts | 25° |
| 2026-05-06 19:05 | 40.02384 | 27.14877 | 27384 ft | 410 kts | 25° |
| 2026-05-06 19:05 | 40.04827 | 27.16768 | 27128 ft | 408 kts | 25° |
| 2026-05-06 19:06 | 40.07262 | 27.18655 | 26871 ft | 406 kts | 26° |
| 2026-05-06 19:06 | 40.09688 | 27.20537 | 26617 ft | 404 kts | 26° |
| 2026-05-06 19:06 | 40.12101 | 27.22409 | 26363 ft | 402 kts | 26° |
| 2026-05-06 19:06 | 40.14487 | 27.24264 | 26130 ft | 400 kts | 26° |
| 2026-05-06 19:07 | 40.16932 | 27.25994 | 25964 ft | 390 kts | 19° |
| 2026-05-06 19:07 | 40.19420 | 27.27144 | 25543 ft | 380 kts | 11° |
| 2026-05-06 19:07 | 40.22000 | 27.27742 | 24875 ft | 374 kts | 2° |
| 2026-05-06 19:07 | 40.24579 | 27.27910 | 24156 ft | 371 kts | 0° |
| 2026-05-06 19:08 | 40.27154 | 27.28066 | 23430 ft | 369 kts | 1° |
| 2026-05-06 19:08 | 40.29704 | 27.28236 | 22656 ft | 365 kts | 1° |
| 2026-05-06 19:08 | 40.32220 | 27.28410 | 22107 ft | 357 kts | 1° |
| 2026-05-06 19:08 | 40.34643 | 27.28581 | 21939 ft | 339 kts | 1° |
| 2026-05-06 19:09 | 40.36945 | 27.28743 | 21756 ft | 324 kts | 1° |
| 2026-05-06 19:09 | 40.39181 | 27.28898 | 21263 ft | 320 kts | 1° |
| 2026-05-06 19:09 | 40.41401 | 27.29105 | 20691 ft | 320 kts | 6° |
| 2026-05-06 19:09 | 40.43493 | 27.30072 | 20206 ft | 324 kts | 28° |
| 2026-05-06 19:10 | 40.45158 | 27.32069 | 19788 ft | 328 kts | 49° |
| 2026-05-06 19:10 | 40.46138 | 27.34805 | 19301 ft | 336 kts | 72° |
| 2026-05-06 19:10 | 40.46336 | 27.37885 | 18817 ft | 341 kts | 85° |
| 2026-05-06 19:10 | 40.46335 | 27.40988 | 18365 ft | 339 kts | 85° |
| 2026-05-06 19:11 | 40.46336 | 27.44066 | 17885 ft | 335 kts | 86° |
| 2026-05-06 19:11 | 40.46337 | 27.47115 | 17416 ft | 332 kts | 85° |
| 2026-05-06 19:11 | 40.46337 | 27.50139 | 16933 ft | 329 kts | 86° |
| 2026-05-06 19:11 | 40.46336 | 27.53090 | 16352 ft | 329 kts | 86° |
| 2026-05-06 19:12 | 40.46339 | 27.56136 | 15524 ft | 338 kts | 86° |
| 2026-05-06 19:12 | 40.46615 | 27.59194 | 14722 ft | 341 kts | 68° |
| 2026-05-06 19:12 | 40.47595 | 27.62118 | 14252 ft | 353 kts | 59° |
| 2026-05-06 19:12 | 40.48744 | 27.64942 | 13996 ft | 347 kts | 58° |
| 2026-05-06 19:13 | 40.49886 | 27.67744 | 13743 ft | 347 kts | 58° |
| 2026-05-06 19:13 | 40.50989 | 27.70565 | 13478 ft | 347 kts | 59° |
| 2026-05-06 19:13 | 40.52058 | 27.73406 | 13216 ft | 346 kts | 60° |
| 2026-05-06 19:13 | 40.53102 | 27.76246 | 12952 ft | 344 kts | 60° |
| 2026-05-06 19:14 | 40.54132 | 27.79082 | 12699 ft | 343 kts | 60° |
| 2026-05-06 19:14 | 40.55157 | 27.81912 | 12442 ft | 342 kts | 60° |
| 2026-05-06 19:14 | 40.56164 | 27.84699 | 12190 ft | 341 kts | 60° |
| 2026-05-06 19:14 | 40.57180 | 27.87508 | 11937 ft | 340 kts | 60° |
| 2026-05-06 19:15 | 40.58192 | 27.90311 | 11686 ft | 338 kts | 60° |
| 2026-05-06 19:15 | 40.59202 | 27.93107 | 11440 ft | 337 kts | 61° |
| 2026-05-06 19:15 | 40.60205 | 27.95886 | 11195 ft | 336 kts | 60° |
| 2026-05-06 19:15 | 40.61206 | 27.98662 | 10942 ft | 335 kts | 61° |
| 2026-05-06 19:16 | 40.62199 | 28.01418 | 10691 ft | 333 kts | 61° |
| 2026-05-06 19:16 | 40.63189 | 28.04169 | 10473 ft | 332 kts | 61° |
| 2026-05-06 19:16 | 40.64153 | 28.06856 | 10304 ft | 314 kts | 61° |
| 2026-05-06 19:16 | 40.65050 | 28.09373 | 10092 ft | 293 kts | 60° |
| 2026-05-06 19:17 | 40.65907 | 28.11766 | 9551 ft | 284 kts | 60° |
| 2026-05-06 19:17 | 40.66742 | 28.14087 | 9280 ft | 282 kts | 60° |
| 2026-05-06 19:17 | 40.67590 | 28.16439 | 9160 ft | 285 kts | 60° |
| 2026-05-06 19:17 | 40.68427 | 28.18770 | 8780 ft | 279 kts | 60° |
| 2026-05-06 19:18 | 40.69257 | 28.21086 | 8211 ft | 280 kts | 61° |
| 2026-05-06 19:18 | 40.70073 | 28.23366 | 7605 ft | 277 kts | 61° |
| 2026-05-06 19:18 | 40.70899 | 28.25679 | 6984 ft | 275 kts | 61° |
| 2026-05-06 19:18 | 40.71714 | 28.27961 | 6381 ft | 275 kts | 61° |
| 2026-05-06 19:19 | 40.72516 | 28.30208 | 5746 ft | 273 kts | 61° |
| 2026-05-06 19:19 | 40.73327 | 28.32478 | 5128 ft | 275 kts | 62° |
| 2026-05-06 19:19 | 40.74142 | 28.34758 | 4504 ft | 274 kts | 62° |
| 2026-05-06 19:19 | 40.74948 | 28.37016 | 4088 ft | 271 kts | 63° |
| 2026-05-06 19:20 | 40.75750 | 28.39268 | 3974 ft | 265 kts | 63° |
| 2026-05-06 19:20 | 40.76506 | 28.41406 | 3959 ft | 249 kts | 63° |
| 2026-05-06 19:20 | 40.77245 | 28.43492 | 3961 ft | 253 kts | 63° |
| 2026-05-06 19:20 | 40.77985 | 28.45578 | 3964 ft | 250 kts | 63° |
| 2026-05-06 19:21 | 40.78723 | 28.47659 | 3967 ft | 251 kts | 63° |
| 2026-05-06 19:21 | 40.79463 | 28.49748 | 3968 ft | 250 kts | 63° |
| 2026-05-06 19:21 | 40.80191 | 28.51802 | 3971 ft | 250 kts | 63° |
| 2026-05-06 19:21 | 40.80915 | 28.53852 | 3972 ft | 250 kts | 63° |
| 2026-05-06 19:22 | 40.81651 | 28.55935 | 3976 ft | 250 kts | 63° |
| 2026-05-06 19:22 | 40.82386 | 28.58018 | 3980 ft | 250 kts | 63° |
| 2026-05-06 19:22 | 40.83120 | 28.60099 | 3983 ft | 250 kts | 63° |
| 2026-05-06 19:22 | 40.83852 | 28.62175 | 3984 ft | 250 kts | 63° |
| 2026-05-06 19:23 | 40.84585 | 28.64260 | 3989 ft | 250 kts | 63° |
| 2026-05-06 19:23 | 40.85318 | 28.66342 | 3990 ft | 250 kts | 63° |
| 2026-05-06 19:23 | 40.86200 | 28.68273 | 3991 ft | 247 kts | 45° |
| 2026-05-06 19:23 | 40.87559 | 28.69604 | 3996 ft | 243 kts | 24° |
| 2026-05-06 19:24 | 40.89074 | 28.70601 | 3996 ft | 242 kts | 24° |
| 2026-05-06 19:24 | 40.90579 | 28.71610 | 3997 ft | 242 kts | 24° |
| 2026-05-06 19:24 | 40.92079 | 28.72628 | 3999 ft | 242 kts | 25° |
| 2026-05-06 19:24 | 40.93573 | 28.73650 | 3999 ft | 242 kts | 25° |
| 2026-05-06 19:25 | 40.95024 | 28.74645 | 3996 ft | 225 kts | 25° |
| 2026-05-06 19:25 | 40.96402 | 28.75549 | 3998 ft | 221 kts | 19° |
| 2026-05-06 19:25 | 40.97874 | 28.76051 | 3998 ft | 217 kts | 5° |
| 2026-05-06 19:25 | 40.99380 | 28.76173 | 3999 ft | 216 kts | 358° |
| 2026-05-06 19:26 | 41.00882 | 28.76149 | 3998 ft | 216 kts | 356° |
| 2026-05-06 19:26 | 41.02377 | 28.76119 | 3997 ft | 215 kts | 357° |
| 2026-05-06 19:26 | 41.03860 | 28.76093 | 3995 ft | 206 kts | 356° |
| 2026-05-06 19:26 | 41.05214 | 28.76070 | 4018 ft | 180 kts | 356° |
| 2026-05-06 19:27 | 41.06486 | 28.76043 | 3996 ft | 184 kts | 356° |
| 2026-05-06 19:27 | 41.07763 | 28.76019 | 3938 ft | 184 kts | 356° |
| 2026-05-06 19:27 | 41.09044 | 28.75994 | 3721 ft | 184 kts | 357° |
| 2026-05-06 19:27 | 41.10320 | 28.75971 | 3475 ft | 184 kts | 357° |
| 2026-05-06 19:28 | 41.11598 | 28.75947 | 3228 ft | 184 kts | 357° |
| 2026-05-06 19:28 | 41.12879 | 28.75922 | 2976 ft | 185 kts | 358° |
| 2026-05-06 19:28 | 41.14138 | 28.75899 | 2738 ft | 175 kts | 358° |
| 2026-05-06 19:28 | 41.15296 | 28.75878 | 2525 ft | 165 kts | 358° |
| 2026-05-06 19:29 | 41.16370 | 28.75859 | 2304 ft | 142 kts | 358° |
| 2026-05-06 19:29 | 41.17328 | 28.75839 | 2117 ft | 137 kts | 358° |
| 2026-05-06 19:29 | 41.18276 | 28.75821 | 1937 ft | 135 kts | 358° |
| 2026-05-06 19:29 | 41.19213 | 28.75803 | 1756 ft | 134 kts | 358° |
| 2026-05-06 19:30 | 41.20139 | 28.75786 | 1565 ft | 132 kts | 358° |
| 2026-05-06 19:30 | 41.21062 | 28.75768 | 1397 ft | 133 kts | 359° |
| 2026-05-06 19:30 | 41.21971 | 28.75750 | 1200 ft | 132 kts | 359° |
| 2026-05-06 19:30 | 41.22891 | 28.75722 | 1058 ft | 132 kts | 359° |
| 2026-05-06 19:31 | 41.23810 | 28.75723 | 885 ft | 133 kts | 1° |
| 2026-05-06 19:31 | 41.24719 | 28.75689 | 703 ft | 132 kts | 2° |
| 2026-05-06 19:31 | 41.26541 | 28.75662 | 339 ft | 127 kts | 3° |
| 2026-05-06 19:32 | 41.27272 | 28.75656 | 331 ft | 77 kts | 359° |
| 2026-05-06 19:32 | 41.27677 | 28.75646 | 330 ft | 53 kts | 359° |
| 2026-05-06 19:32 | 41.28019 | 28.75580 | 332 ft | 43 kts | 335° |
| 2026-05-06 19:32 | 41.28163 | 28.75442 | 331 ft | 9 kts | 274° |
| 2026-05-06 19:33 | 41.28120 | 28.75353 | 333 ft | 16 kts | 197° |
| 2026-05-06 19:33 | 41.28092 | 28.75349 | 334 ft | 0 kts | 180° |
| 2026-05-06 19:34 | 41.28076 | 28.75349 | 331 ft | 10 kts | 180° |
| 2026-05-06 19:34 | 41.27947 | 28.75351 | 331 ft | 24 kts | 178° |
| 2026-05-06 19:34 | 41.27758 | 28.75356 | 333 ft | 30 kts | 178° |
| 2026-05-06 19:35 | 41.27536 | 28.75362 | 332 ft | 34 kts | 179° |
| 2026-05-06 19:35 | 41.27289 | 28.75367 | 330 ft | 37 kts | 179° |
| 2026-05-06 19:35 | 41.27089 | 28.75356 | 333 ft | 2 kts | 224° |
| 2026-05-06 19:35 | 41.27072 | 28.75285 | 330 ft | 14 kts | 268° |
| 2026-05-06 19:36 | 41.27033 | 28.75149 | 333 ft | 14 kts | 198° |
| 2026-05-06 19:36 | 41.26915 | 28.75150 | 332 ft | 22 kts | 179° |
| 2026-05-06 19:36 | 41.26737 | 28.75156 | 330 ft | 29 kts | 178° |
| 2026-05-06 19:36 | 41.26530 | 28.75104 | 333 ft | 33 kts | 197° |
| 2026-05-06 19:37 | 41.26298 | 28.75011 | 334 ft | 36 kts | 198° |
| 2026-05-06 19:37 | 41.26151 | 28.75011 | 333 ft | 28 kts | 162° |
| 2026-05-06 19:37 | 41.25901 | 28.75127 | 331 ft | 26 kts | 160° |
| 2026-05-06 19:37 | 41.25778 | 28.75169 | 332 ft | 28 kts | 179° |
| 2026-05-06 19:38 | 41.25644 | 28.75097 | 333 ft | 10 kts | 276° |
| 2026-05-06 19:38 | 41.25653 | 28.74981 | 332 ft | 7 kts | 301° |
| 2026-05-06 19:38 | 41.25686 | 28.74954 | 334 ft | 10 kts | 343° |
| 2026-05-06 19:38 | 41.25724 | 28.74951 | 331 ft | 2 kts | 1° |
| 2026-05-06 19:39 | 41.25738 | 28.74951 | 332 ft | 0 kts | 0° |